sensor_id;sensor_type;location;lat;lon;timestamp;pressure;altitude;pressure_sealevel;temperature;humidity
75594;BME280;64176;49.156;7.810;2023-01-05T00:01:11;99606.22;;;9.68;92.10
75594;BME280;64176;49.156;7.810;2023-01-05T00:03:57;99610.56;;;9.72;92.17
75594;BME280;64176;49.156;7.810;2023-01-05T00:06:46;99616.53;;;9.68;92.50
75594;BME280;64176;49.156;7.810;2023-01-05T00:09:30;99614.88;;;9.72;92.54
75594;BME280;64176;49.156;7.810;2023-01-05T00:12:17;99604.56;;;9.75;92.38
75594;BME280;64176;49.156;7.810;2023-01-05T00:15:20;99599.44;;;9.76;92.29
75594;BME280;64176;49.156;7.810;2023-01-05T00:18:25;99583.91;;;9.73;92.05
75594;BME280;64176;49.156;7.810;2023-01-05T00:21:28;99614.91;;;9.75;92.35
75594;BME280;64176;49.156;7.810;2023-01-05T00:24:38;99614.13;;;9.80;92.12
75594;BME280;64176;49.156;7.810;2023-01-05T00:27:22;99596.00;;;9.76;92.39
75594;BME280;64176;49.156;7.810;2023-01-05T00:30:08;99589.16;;;9.79;91.80
75594;BME280;64176;49.156;7.810;2023-01-05T00:32:52;99583.06;;;9.74;92.12
75594;BME280;64176;49.156;7.810;2023-01-05T00:35:39;99604.69;;;9.81;92.23
75594;BME280;64176;49.156;7.810;2023-01-05T00:38:26;99607.34;;;9.89;91.88
75594;BME280;64176;49.156;7.810;2023-01-05T00:41:10;99602.13;;;9.85;92.12
75594;BME280;64176;49.156;7.810;2023-01-05T00:43:54;99596.97;;;9.85;92.22
75594;BME280;64176;49.156;7.810;2023-01-05T00:46:38;99585.00;;;9.91;91.48
75594;BME280;64176;49.156;7.810;2023-01-05T00:49:22;99576.34;;;9.87;91.59
75594;BME280;64176;49.156;7.810;2023-01-05T00:52:06;99599.69;;;9.96;91.23
75594;BME280;64176;49.156;7.810;2023-01-05T00:54:50;99588.50;;;9.93;91.61
75594;BME280;64176;49.156;7.810;2023-01-05T00:57:37;99581.56;;;9.90;91.77
75594;BME280;64176;49.156;7.810;2023-01-05T01:00:21;99591.06;;;9.91;91.49
75594;BME280;64176;49.156;7.810;2023-01-05T01:03:06;99588.47;;;9.91;91.85
75594;BME280;64176;49.156;7.810;2023-01-05T01:05:56;99580.75;;;9.96;91.47
75594;BME280;64176;49.156;7.810;2023-01-05T01:08:41;99569.53;;;9.91;92.01
75594;BME280;64176;49.156;7.810;2023-01-05T01:11:25;99577.34;;;9.97;91.50
75594;BME280;64176;49.156;7.810;2023-01-05T01:14:11;99565.13;;;9.85;92.41
75594;BME280;64176;49.156;7.810;2023-01-05T01:16:56;99565.13;;;9.85;92.29
75594;BME280;64176;49.156;7.810;2023-01-05T01:19:44;99567.75;;;9.88;92.27
75594;BME280;64176;49.156;7.810;2023-01-05T01:22:29;99572.03;;;9.86;92.75
75594;BME280;64176;49.156;7.810;2023-01-05T01:25:13;99567.81;;;9.91;92.14
75594;BME280;64176;49.156;7.810;2023-01-05T01:27:59;99561.78;;;9.91;92.73
75594;BME280;64176;49.156;7.810;2023-01-05T01:30:49;99548.78;;;9.84;93.14
75594;BME280;64176;49.156;7.810;2023-01-05T01:33:37;99554.78;;;9.83;93.24
75594;BME280;64176;49.156;7.810;2023-01-05T01:36:23;99558.34;;;9.92;92.94
75594;BME280;64176;49.156;7.810;2023-01-05T01:39:08;99555.91;;;10.02;92.19
75594;BME280;64176;49.156;7.810;2023-01-05T01:41:55;99559.34;;;10.03;91.99
75594;BME280;64176;49.156;7.810;2023-01-05T01:44:50;99568.00;;;10.08;91.67
75594;BME280;64176;49.156;7.810;2023-01-05T01:47:44;99560.19;;;10.00;92.23
75594;BME280;64176;49.156;7.810;2023-01-05T01:50:52;99577.56;;;10.13;91.62
75594;BME280;64176;49.156;7.810;2023-01-05T01:53:39;99570.63;;;10.11;91.74
75594;BME280;64176;49.156;7.810;2023-01-05T01:56:28;99590.50;;;10.15;91.62
75594;BME280;64176;49.156;7.810;2023-01-05T01:59:14;99577.59;;;10.15;91.64
75594;BME280;64176;49.156;7.810;2023-01-05T02:02:01;99576.88;;;10.25;90.71
75594;BME280;64176;49.156;7.810;2023-01-05T02:04:45;99566.56;;;10.25;90.08
75594;BME280;64176;49.156;7.810;2023-01-05T02:07:36;99572.47;;;10.18;90.41
75594;BME280;64176;49.156;7.810;2023-01-05T02:32:41;99569.28;;;10.40;88.45
75594;BME280;64176;49.156;7.810;2023-01-05T02:38:39;99563.16;;;10.31;89.18
75594;BME280;64176;49.156;7.810;2023-01-05T02:41:58;99559.75;;;10.35;88.72
75594;BME280;64176;49.156;7.810;2023-01-05T02:44:45;99560.63;;;10.35;88.70
75594;BME280;64176;49.156;7.810;2023-01-05T02:47:38;99569.22;;;10.34;88.86
75594;BME280;64176;49.156;7.810;2023-01-05T02:50:39;99555.50;;;10.37;88.79
75594;BME280;64176;49.156;7.810;2023-01-05T02:53:32;99560.69;;;10.41;88.77
75594;BME280;64176;49.156;7.810;2023-01-05T02:56:29;99545.97;;;10.34;88.97
75594;BME280;64176;49.156;7.810;2023-01-05T03:02:12;99547.78;;;10.43;88.64
75594;BME280;64176;49.156;7.810;2023-01-05T03:05:24;99550.47;;;10.52;88.31
75594;BME280;64176;49.156;7.810;2023-01-05T03:08:12;99549.47;;;10.38;88.96
75594;BME280;64176;49.156;7.810;2023-01-05T03:11:10;99542.75;;;10.55;87.78
75594;BME280;64176;49.156;7.810;2023-01-05T03:14:38;99544.44;;;10.53;88.05
75594;BME280;64176;49.156;7.810;2023-01-05T03:17:28;99546.13;;;10.49;87.99
75594;BME280;64176;49.156;7.810;2023-01-05T03:20:17;99544.34;;;10.44;88.68
75594;BME280;64176;49.156;7.810;2023-01-05T03:23:05;99543.47;;;10.42;88.88
75594;BME280;64176;49.156;7.810;2023-01-05T03:26:13;99535.69;;;10.39;88.72
75594;BME280;64176;49.156;7.810;2023-01-05T03:29:17;99540.03;;;10.43;88.86
75594;BME280;64176;49.156;7.810;2023-01-05T03:32:22;99544.25;;;10.33;89.51
75594;BME280;64176;49.156;7.810;2023-01-05T03:35:31;99542.44;;;10.28;89.90
75594;BME280;64176;49.156;7.810;2023-01-05T03:38:41;99546.78;;;10.27;90.36
75594;BME280;64176;49.156;7.810;2023-01-05T03:41:26;99535.50;;;10.22;90.34
75594;BME280;64176;49.156;7.810;2023-01-05T03:44:14;99557.84;;;10.18;90.94
75594;BME280;64176;49.156;7.810;2023-01-05T03:47:00;99550.84;;;10.11;91.64
75594;BME280;64176;49.156;7.810;2023-01-05T03:49:47;99554.34;;;10.16;91.31
75594;BME280;64176;49.156;7.810;2023-01-05T03:52:33;99574.13;;;10.14;91.13
75594;BME280;64176;49.156;7.810;2023-01-05T03:55:18;99572.44;;;10.15;91.32
75594;BME280;64176;49.156;7.810;2023-01-05T03:58:08;99575.91;;;10.18;91.16
75594;BME280;64176;49.156;7.810;2023-01-05T04:00:55;99553.38;;;10.08;91.60
75594;BME280;64176;49.156;7.810;2023-01-05T04:03:42;99574.03;;;10.08;91.48
75594;BME280;64176;49.156;7.810;2023-01-05T04:06:29;99581.97;;;10.20;90.88
75594;BME280;64176;49.156;7.810;2023-01-05T04:09:13;99582.06;;;10.27;89.29
75594;BME280;64176;49.156;7.810;2023-01-05T04:11:59;99591.53;;;10.28;89.56
75594;BME280;64176;49.156;7.810;2023-01-05T04:14:46;99603.72;;;10.36;88.95
75594;BME280;64176;49.156;7.810;2023-01-05T04:17:33;99612.22;;;10.31;88.32
75594;BME280;64176;49.156;7.810;2023-01-05T04:20:17;99615.72;;;10.34;86.99
75594;BME280;64176;49.156;7.810;2023-01-05T04:23:01;99603.47;;;10.18;87.51
75594;BME280;64176;49.156;7.810;2023-01-05T04:25:47;99610.53;;;10.31;85.80
75594;BME280;64176;49.156;7.810;2023-01-05T04:28:36;99606.06;;;10.19;86.23
75594;BME280;64176;49.156;7.810;2023-01-05T04:31:25;99595.78;;;10.23;82.79
75594;BME280;64176;49.156;7.810;2023-01-05T04:34:13;99588.00;;;10.19;84.53
75594;BME280;64176;49.156;7.810;2023-01-05T04:37:02;99601.75;;;10.18;83.75
75594;BME280;64176;49.156;7.810;2023-01-05T04:39:48;99598.13;;;10.07;83.17
75594;BME280;64176;49.156;7.810;2023-01-05T04:42:33;99606.72;;;10.05;83.43
75594;BME280;64176;49.156;7.810;2023-01-05T04:45:18;99604.03;;;9.97;83.31
75594;BME280;64176;49.156;7.810;2023-01-05T04:48:02;99621.31;;;10.03;81.95
75594;BME280;64176;49.156;7.810;2023-01-05T04:50:54;99615.28;;;10.02;80.88
75594;BME280;64176;49.156;7.810;2023-01-05T04:53:47;99594.50;;;9.92;80.60
75594;BME280;64176;49.156;7.810;2023-01-05T04:56:37;99610.00;;;9.93;80.04
75594;BME280;64176;49.156;7.810;2023-01-05T04:59:25;99611.56;;;9.82;81.18
75594;BME280;64176;49.156;7.810;2023-01-05T05:02:10;99615.88;;;9.81;80.69
75594;BME280;64176;49.156;7.810;2023-01-05T05:04:57;99620.88;;;9.71;81.45
75594;BME280;64176;49.156;7.810;2023-01-05T05:07:41;99613.94;;;9.68;81.21
75594;BME280;64176;49.156;7.810;2023-01-05T05:10:30;99631.03;;;9.62;81.89
75594;BME280;64176;49.156;7.810;2023-01-05T05:13:14;99621.84;;;9.79;80.07
75594;BME280;64176;49.156;7.810;2023-01-05T05:16:01;99630.25;;;9.66;81.33
75594;BME280;64176;49.156;7.810;2023-01-05T05:18:49;99648.16;;;9.55;82.11
75594;BME280;64176;49.156;7.810;2023-01-05T05:21:38;99657.56;;;9.53;82.88
75594;BME280;64176;49.156;7.810;2023-01-05T05:24:22;99660.47;;;9.73;81.50
75594;BME280;64176;49.156;7.810;2023-01-05T05:27:09;99659.41;;;9.59;82.71
75594;BME280;64176;49.156;7.810;2023-01-05T05:29:55;99668.75;;;9.54;83.31
75594;BME280;64176;49.156;7.810;2023-01-05T05:32:39;99673.91;;;9.54;83.46
75594;BME280;64176;49.156;7.810;2023-01-05T05:35:26;99688.47;;;9.50;84.13
75594;BME280;64176;49.156;7.810;2023-01-05T05:38:12;99688.44;;;9.47;84.31
75594;BME280;64176;49.156;7.810;2023-01-05T05:41:02;99696.19;;;9.47;84.38
75594;BME280;64176;49.156;7.810;2023-01-05T05:43:46;99697.06;;;9.47;84.42
75594;BME280;64176;49.156;7.810;2023-01-05T05:46:30;99693.47;;;9.39;85.09
75594;BME280;64176;49.156;7.810;2023-01-05T05:49:16;99697.09;;;9.49;84.43
75594;BME280;64176;49.156;7.810;2023-01-05T05:52:00;99704.81;;;9.49;84.21
75594;BME280;64176;49.156;7.810;2023-01-05T05:54:44;99693.59;;;9.47;84.05
75594;BME280;64176;49.156;7.810;2023-01-05T05:57:31;99708.34;;;9.54;83.52
75594;BME280;64176;49.156;7.810;2023-01-05T06:00:15;99687.72;;;9.56;83.22
75594;BME280;64176;49.156;7.810;2023-01-05T06:03:03;99698.16;;;9.63;82.62
75594;BME280;64176;49.156;7.810;2023-01-05T06:05:50;99701.53;;;9.58;82.85
75594;BME280;64176;49.156;7.810;2023-01-05T06:08:34;99702.44;;;9.63;82.71
75594;BME280;64176;49.156;7.810;2023-01-05T06:11:18;99696.31;;;9.55;83.50
75594;BME280;64176;49.156;7.810;2023-01-05T06:14:02;99701.56;;;9.59;83.03
75594;BME280;64176;49.156;7.810;2023-01-05T06:16:49;99709.28;;;9.59;83.32
75594;BME280;64176;49.156;7.810;2023-01-05T06:19:36;99713.44;;;9.49;84.18
75594;BME280;64176;49.156;7.810;2023-01-05T06:22:22;99717.69;;;9.47;84.52
75594;BME280;64176;49.156;7.810;2023-01-05T06:25:06;99717.72;;;9.49;84.35
75594;BME280;64176;49.156;7.810;2023-01-05T06:27:51;99732.34;;;9.50;84.36
75594;BME280;64176;49.156;7.810;2023-01-05T06:30:38;99723.88;;;9.57;83.25
75594;BME280;64176;49.156;7.810;2023-01-05T06:33:22;99747.00;;;9.53;84.73
75594;BME280;64176;49.156;7.810;2023-01-05T06:36:06;99746.97;;;9.51;84.44
75594;BME280;64176;49.156;7.810;2023-01-05T06:38:50;99750.41;;;9.48;84.56
75594;BME280;64176;49.156;7.810;2023-01-05T06:41:36;99753.09;;;9.56;83.94
75594;BME280;64176;49.156;7.810;2023-01-05T06:44:23;99749.75;;;9.62;83.56
75594;BME280;64176;49.156;7.810;2023-01-05T06:47:07;99752.38;;;9.65;83.04
75594;BME280;64176;49.156;7.810;2023-01-05T06:49:51;99755.75;;;9.59;83.50
75594;BME280;64176;49.156;7.810;2023-01-05T06:52:35;99759.94;;;9.54;83.85
75594;BME280;64176;49.156;7.810;2023-01-05T06:55:22;99746.13;;;9.52;83.86
75594;BME280;64176;49.156;7.810;2023-01-05T06:58:06;99745.28;;;9.53;83.89
75594;BME280;64176;49.156;7.810;2023-01-05T07:00:52;99750.34;;;9.45;84.69
75594;BME280;64176;49.156;7.810;2023-01-05T07:03:39;99755.50;;;9.45;84.87
75594;BME280;64176;49.156;7.810;2023-01-05T07:06:23;99757.25;;;9.48;84.41
75594;BME280;64176;49.156;7.810;2023-01-05T07:09:10;99757.25;;;9.48;84.50
75594;BME280;64176;49.156;7.810;2023-01-05T07:11:53;99763.16;;;9.42;84.85
75594;BME280;64176;49.156;7.810;2023-01-05T07:14:40;99764.19;;;9.52;83.70
75594;BME280;64176;49.156;7.810;2023-01-05T07:17:24;99759.78;;;9.45;84.09
75594;BME280;64176;49.156;7.810;2023-01-05T07:20:08;99758.03;;;9.44;84.37
75594;BME280;64176;49.156;7.810;2023-01-05T07:22:55;99745.88;;;9.37;83.55
75594;BME280;64176;49.156;7.810;2023-01-05T07:25:39;99753.63;;;9.37;83.48
75594;BME280;64176;49.156;7.810;2023-01-05T07:28:22;99762.41;;;9.46;83.48
75594;BME280;64176;49.156;7.810;2023-01-05T07:31:07;99766.75;;;9.50;82.93
75594;BME280;64176;49.156;7.810;2023-01-05T07:33:53;99754.59;;;9.43;82.83
75594;BME280;64176;49.156;7.810;2023-01-05T07:36:40;99760.72;;;9.48;82.48
75594;BME280;64176;49.156;7.810;2023-01-05T07:39:24;99758.19;;;9.53;81.42
75594;BME280;64176;49.156;7.810;2023-01-05T07:42:08;99760.03;;;9.59;80.44
75594;BME280;64176;49.156;7.810;2023-01-05T07:44:53;99768.53;;;9.53;81.37
75594;BME280;64176;49.156;7.810;2023-01-05T07:47:38;99761.59;;;9.49;81.48
75594;BME280;64176;49.156;7.810;2023-01-05T07:50:22;99767.63;;;9.49;80.46
75594;BME280;64176;49.156;7.810;2023-01-05T07:53:10;99778.09;;;9.59;80.67
75594;BME280;64176;49.156;7.810;2023-01-05T07:55:56;99790.84;;;9.51;80.95
75594;BME280;64176;49.156;7.810;2023-01-05T07:58:40;99790.00;;;9.52;80.59
75594;BME280;64176;49.156;7.810;2023-01-05T08:01:27;99793.22;;;9.40;80.94
75594;BME280;64176;49.156;7.810;2023-01-05T08:04:11;99803.63;;;9.45;81.36
75594;BME280;64176;49.156;7.810;2023-01-05T08:07:00;99799.38;;;9.47;81.24
75594;BME280;64176;49.156;7.810;2023-01-05T08:09:44;99805.44;;;9.49;80.78
75594;BME280;64176;49.156;7.810;2023-01-05T08:12:47;99812.31;;;9.48;80.78
75594;BME280;64176;49.156;7.810;2023-01-05T08:15:51;99820.00;;;9.45;81.47
75594;BME280;64176;49.156;7.810;2023-01-05T08:18:36;99818.25;;;9.44;81.19
75594;BME280;64176;49.156;7.810;2023-01-05T08:21:25;99821.75;;;9.48;81.24
75594;BME280;64176;49.156;7.810;2023-01-05T08:24:14;99833.78;;;9.47;81.09
75594;BME280;64176;49.156;7.810;2023-01-05T08:26:58;99837.97;;;9.42;81.72
75594;BME280;64176;49.156;7.810;2023-01-05T08:29:45;99830.03;;;9.32;82.19
75594;BME280;64176;49.156;7.810;2023-01-05T08:32:28;99845.97;;;9.55;80.56
75594;BME280;64176;49.156;7.810;2023-01-05T08:35:12;99837.38;;;9.56;81.18
75594;BME280;64176;49.156;7.810;2023-01-05T08:37:56;99855.53;;;9.60;80.90
75594;BME280;64176;49.156;7.810;2023-01-05T08:40:40;99851.19;;;9.58;80.92
75594;BME280;64176;49.156;7.810;2023-01-05T08:43:25;99851.22;;;9.59;80.72
75594;BME280;64176;49.156;7.810;2023-01-05T08:46:09;99861.59;;;9.64;80.64
75594;BME280;64176;49.156;7.810;2023-01-05T08:48:56;99861.47;;;9.56;81.61
75594;BME280;64176;49.156;7.810;2023-01-05T08:51:41;99872.66;;;9.57;81.36
75594;BME280;64176;49.156;7.810;2023-01-05T08:54:25;99862.41;;;9.60;81.19
75594;BME280;64176;49.156;7.810;2023-01-05T08:57:09;99870.13;;;9.58;81.51
75594;BME280;64176;49.156;7.810;2023-01-05T08:59:53;99846.84;;;9.57;80.86
75594;BME280;64176;49.156;7.810;2023-01-05T09:02:39;99862.44;;;9.63;80.94
75594;BME280;64176;49.156;7.810;2023-01-05T09:05:23;99870.25;;;9.66;80.73
75594;BME280;64176;49.156;7.810;2023-01-05T09:08:07;99870.16;;;9.61;80.75
75594;BME280;64176;49.156;7.810;2023-01-05T09:10:51;99875.34;;;9.63;81.18
75594;BME280;64176;49.156;7.810;2023-01-05T09:13:36;99875.44;;;9.67;81.07
75594;BME280;64176;49.156;7.810;2023-01-05T09:16:23;99870.28;;;9.67;81.53
75594;BME280;64176;49.156;7.810;2023-01-05T09:19:08;99878.88;;;9.66;81.14
75594;BME280;64176;49.156;7.810;2023-01-05T09:21:52;99872.94;;;9.70;80.96
75594;BME280;64176;49.156;7.810;2023-01-05T09:24:40;99876.34;;;9.69;80.66
75594;BME280;64176;49.156;7.810;2023-01-05T09:27:23;99874.69;;;9.71;80.53
75594;BME280;64176;49.156;7.810;2023-01-05T09:30:08;99882.50;;;9.76;80.58
75594;BME280;64176;49.156;7.810;2023-01-05T09:32:52;99882.56;;;9.79;80.82
75594;BME280;64176;49.156;7.810;2023-01-05T09:35:38;99891.22;;;9.84;80.40
75594;BME280;64176;49.156;7.810;2023-01-05T09:38:23;99887.91;;;9.90;80.42
75594;BME280;64176;49.156;7.810;2023-01-05T09:41:11;99895.72;;;9.94;80.12
75594;BME280;64176;49.156;7.810;2023-01-05T09:44:01;99894.88;;;9.94;80.01
75594;BME280;64176;49.156;7.810;2023-01-05T09:46:48;99896.59;;;9.93;80.01
75594;BME280;64176;49.156;7.810;2023-01-05T09:49:39;99888.66;;;9.84;80.32
75594;BME280;64176;49.156;7.810;2023-01-05T09:52:24;99891.22;;;9.82;80.21
75594;BME280;64176;49.156;7.810;2023-01-05T09:55:17;99904.28;;;9.90;80.11
75594;BME280;64176;49.156;7.810;2023-01-05T09:58:08;99896.50;;;9.89;79.54
75594;BME280;64176;49.156;7.810;2023-01-05T10:01:09;99907.72;;;9.91;80.11
75594;BME280;64176;49.156;7.810;2023-01-05T10:04:00;99906.06;;;9.93;79.52
75594;BME280;64176;49.156;7.810;2023-01-05T10:06:49;99906.84;;;9.90;79.99
75594;BME280;64176;49.156;7.810;2023-01-05T10:09:38;99900.78;;;9.88;80.20
75594;BME280;64176;49.156;7.810;2023-01-05T10:12:35;99901.72;;;9.92;80.56
75594;BME280;64176;49.156;7.810;2023-01-05T10:15:47;99900.06;;;9.94;80.62
75594;BME280;64176;49.156;7.810;2023-01-05T10:18:33;99900.97;;;9.99;79.38
75594;BME280;64176;49.156;7.810;2023-01-05T10:27:06;99898.34;;;9.96;79.81
75594;BME280;64176;49.156;7.810;2023-01-05T10:30:14;99889.00;;;10.02;79.65
75594;BME280;64176;49.156;7.810;2023-01-05T10:36:18;99890.09;;;10.16;78.79
75594;BME280;64176;49.156;7.810;2023-01-05T10:44:59;99888.16;;;10.53;77.83
75594;BME280;64176;49.156;7.810;2023-01-05T10:47:49;99884.75;;;10.55;77.00
75594;BME280;64176;49.156;7.810;2023-01-05T10:50:38;99889.94;;;10.57;78.26
75594;BME280;64176;49.156;7.810;2023-01-05T10:53:27;99884.84;;;10.62;77.35
75594;BME280;64176;49.156;7.810;2023-01-05T10:56:14;99888.25;;;10.61;77.05
75594;BME280;64176;49.156;7.810;2023-01-05T10:59:08;99887.59;;;10.72;77.16
75594;BME280;64176;49.156;7.810;2023-01-05T11:01:52;99875.69;;;10.82;76.53
75594;BME280;64176;49.156;7.810;2023-01-05T11:04:36;99892.09;;;10.85;75.19
75594;BME280;64176;49.156;7.810;2023-01-05T11:07:23;99881.81;;;10.90;74.66
75594;BME280;64176;49.156;7.810;2023-01-05T11:10:20;99874.00;;;10.87;75.56
75594;BME280;64176;49.156;7.810;2023-01-05T11:13:33;99871.38;;;10.84;73.84
75594;BME280;64176;49.156;7.810;2023-01-05T11:16:25;99873.16;;;10.86;74.65
75594;BME280;64176;49.156;7.810;2023-01-05T11:19:15;99880.03;;;10.86;74.36
75594;BME280;64176;49.156;7.810;2023-01-05T11:22:02;99885.16;;;10.81;74.31
75594;BME280;64176;49.156;7.810;2023-01-05T11:24:48;99884.25;;;10.79;74.80
75594;BME280;64176;49.156;7.810;2023-01-05T11:27:38;99875.69;;;10.83;74.97
75594;BME280;64176;49.156;7.810;2023-01-05T11:30:22;99880.00;;;10.81;74.72
75594;BME280;64176;49.156;7.810;2023-01-05T11:33:16;99865.22;;;10.74;74.28
75594;BME280;64176;49.156;7.810;2023-01-05T11:36:07;99886.03;;;10.83;75.23
75594;BME280;64176;49.156;7.810;2023-01-05T11:38:59;99890.25;;;10.77;74.69
75594;BME280;64176;49.156;7.810;2023-01-05T11:41:43;99892.78;;;10.74;74.69
75594;BME280;64176;49.156;7.810;2023-01-05T11:44:33;99878.03;;;10.67;74.62
75594;BME280;64176;49.156;7.810;2023-01-05T11:47:42;99883.22;;;10.67;74.35
75594;BME280;64176;49.156;7.810;2023-01-05T11:50:32;99835.34;;;10.34;74.38
75594;BME280;64176;49.156;7.810;2023-01-05T11:56:24;99891.78;;;10.64;74.40
75594;BME280;64176;49.156;7.810;2023-01-05T11:59:29;99887.41;;;10.62;74.94
75594;BME280;64176;49.156;7.810;2023-01-05T12:02:44;99886.63;;;10.66;74.72
75594;BME280;64176;49.156;7.810;2023-01-05T12:05:49;99876.34;;;10.69;74.82
75594;BME280;64176;49.156;7.810;2023-01-05T12:11:57;99879.97;;;10.80;74.39
75594;BME280;64176;49.156;7.810;2023-01-05T12:30:12;99880.34;;;11.09;71.11
75594;BME280;64176;49.156;7.810;2023-01-05T12:48:12;99888.38;;;11.28;69.42
75594;BME280;64176;49.156;7.810;2023-01-05T12:53:57;99871.66;;;11.02;69.75
75594;BME280;64176;49.156;7.810;2023-01-05T12:56:44;99892.38;;;11.04;70.66
75594;BME280;64176;49.156;7.810;2023-01-05T13:00:00;99894.88;;;10.99;71.46
75594;BME280;64176;49.156;7.810;2023-01-05T13:03:01;99895.69;;;10.97;71.97
75594;BME280;64176;49.156;7.810;2023-01-05T13:11:39;99908.56;;;10.90;73.93
75594;BME280;64176;49.156;7.810;2023-01-05T13:14:53;99903.41;;;10.92;73.70
75594;BME280;64176;49.156;7.810;2023-01-05T13:17:47;99905.88;;;10.86;74.49
75594;BME280;64176;49.156;7.810;2023-01-05T13:23:29;99908.41;;;10.80;75.05
75594;BME280;64176;49.156;7.810;2023-01-05T13:26:17;99900.63;;;10.78;74.40
75594;BME280;64176;49.156;7.810;2023-01-05T13:29:02;99898.09;;;10.81;74.65
75594;BME280;64176;49.156;7.810;2023-01-05T13:38:16;99901.69;;;10.92;74.22
75594;BME280;64176;49.156;7.810;2023-01-05T13:44:36;99908.59;;;10.95;73.47
75594;BME280;64176;49.156;7.810;2023-01-05T13:51:29;99908.53;;;10.89;72.37
75594;BME280;64176;49.156;7.810;2023-01-05T13:57:14;99903.31;;;10.86;71.68
75594;BME280;64176;49.156;7.810;2023-01-05T14:00:22;99909.31;;;10.85;72.62
75594;BME280;64176;49.156;7.810;2023-01-05T14:03:26;99914.59;;;10.91;71.64
75594;BME280;64176;49.156;7.810;2023-01-05T14:06:17;99920.50;;;10.84;72.06
75594;BME280;64176;49.156;7.810;2023-01-05T14:09:12;99921.31;;;10.78;71.51
75594;BME280;64176;49.156;7.810;2023-01-05T14:18:03;99935.09;;;10.79;70.47
75594;BME280;64176;49.156;7.810;2023-01-05T14:20:49;99919.47;;;10.73;70.67
75594;BME280;64176;49.156;7.810;2023-01-05T14:27:24;99936.69;;;10.69;70.32
75594;BME280;64176;49.156;7.810;2023-01-05T14:32:38;99917.47;;;10.55;70.09
75594;BME280;64176;49.156;7.810;2023-01-05T14:35:31;99927.06;;;10.62;70.70
75594;BME280;64176;49.156;7.810;2023-01-05T14:38:23;99904.38;;;10.44;70.16
75594;BME280;64176;49.156;7.810;2023-01-05T14:41:14;99927.91;;;10.61;70.76
75594;BME280;64176;49.156;7.810;2023-01-05T14:44:15;99922.72;;;10.58;70.08
75594;BME280;64176;49.156;7.810;2023-01-05T14:47:03;99931.34;;;10.58;70.23
75594;BME280;64176;49.156;7.810;2023-01-05T14:49:56;99939.00;;;10.54;70.92
75594;BME280;64176;49.156;7.810;2023-01-05T14:52:53;99938.13;;;10.53;71.08
75594;BME280;64176;49.156;7.810;2023-01-05T14:55:41;99941.63;;;10.55;71.39
75594;BME280;64176;49.156;7.810;2023-01-05T14:58:53;99941.53;;;10.51;71.74
75594;BME280;64176;49.156;7.810;2023-01-05T15:01:56;99943.25;;;10.50;71.68
75594;BME280;64176;49.156;7.810;2023-01-05T15:04:47;99942.38;;;10.50;71.87
75594;BME280;64176;49.156;7.810;2023-01-05T15:07:43;99941.53;;;10.51;71.69
75594;BME280;64176;49.156;7.810;2023-01-05T15:13:39;99938.91;;;10.49;71.52
75594;BME280;64176;49.156;7.810;2023-01-05T15:32:42;99937.03;;;10.38;72.70
75594;BME280;64176;49.156;7.810;2023-01-05T15:35:33;99943.91;;;10.39;73.22
75594;BME280;64176;49.156;7.810;2023-01-05T15:38:26;99928.28;;;10.31;73.03
75594;BME280;64176;49.156;7.810;2023-01-05T15:41:17;99931.69;;;10.30;73.16
75594;BME280;64176;49.156;7.810;2023-01-05T15:44:04;99931.66;;;10.29;73.38
75594;BME280;64176;49.156;7.810;2023-01-05T15:46:48;99937.03;;;10.38;72.96
75594;BME280;64176;49.156;7.810;2023-01-05T15:49:33;99932.59;;;10.32;73.17
75594;BME280;64176;49.156;7.810;2023-01-05T15:52:50;99935.13;;;10.29;73.90
75594;BME280;64176;49.156;7.810;2023-01-05T15:55:29;99935.91;;;10.24;74.16
75594;BME280;64176;49.156;7.810;2023-01-05T15:58:20;99943.75;;;10.30;74.04
75594;BME280;64176;49.156;7.810;2023-01-05T16:01:13;99935.16;;;10.31;73.98
75594;BME280;64176;49.156;7.810;2023-01-05T16:04:12;99942.88;;;10.29;74.51
75594;BME280;64176;49.156;7.810;2023-01-05T16:06:59;99945.47;;;10.29;74.69
75594;BME280;64176;49.156;7.810;2023-01-05T16:09:47;99935.88;;;10.22;74.47
75594;BME280;64176;49.156;7.810;2023-01-05T16:12:31;99936.75;;;10.23;74.68
75594;BME280;64176;49.156;7.810;2023-01-05T16:15:17;99926.25;;;10.15;74.76
75594;BME280;64176;49.156;7.810;2023-01-05T16:18:06;99930.50;;;10.13;75.43
75594;BME280;64176;49.156;7.810;2023-01-05T16:20:53;99936.59;;;10.16;75.18
75594;BME280;64176;49.156;7.810;2023-01-05T16:23:53;99927.78;;;10.05;75.58
75594;BME280;64176;49.156;7.810;2023-01-05T16:26:41;99934.78;;;10.11;75.56
75594;BME280;64176;49.156;7.810;2023-01-05T16:29:42;99934.00;;;10.16;75.46
75594;BME280;64176;49.156;7.810;2023-01-05T16:35:22;99955.53;;;10.15;76.46
75594;BME280;64176;49.156;7.810;2023-01-05T16:43:59;99953.06;;;10.20;75.97
75594;BME280;64176;49.156;7.810;2023-01-05T16:46:43;99939.94;;;10.11;76.32
75594;BME280;64176;49.156;7.810;2023-01-05T16:52:20;99933.81;;;10.04;77.25
75594;BME280;64176;49.156;7.810;2023-01-05T16:55:31;99941.56;;;10.06;78.11
75594;BME280;64176;49.156;7.810;2023-01-05T17:03:58;99947.41;;;9.96;79.50
75594;BME280;64176;49.156;7.810;2023-01-05T17:06:47;99937.88;;;9.92;79.25
75594;BME280;64176;49.156;7.810;2023-01-05T17:09:38;99937.91;;;9.95;79.14
75594;BME280;64176;49.156;7.810;2023-01-05T17:12:29;99952.56;;;9.96;79.45
75594;BME280;64176;49.156;7.810;2023-01-05T17:15:17;99926.47;;;9.80;79.64
75594;BME280;64176;49.156;7.810;2023-01-05T17:20:57;99933.47;;;9.88;79.56
75594;BME280;64176;49.156;7.810;2023-01-05T17:23:47;99940.38;;;9.89;80.07
75594;BME280;64176;49.156;7.810;2023-01-05T17:26:38;99929.84;;;9.78;80.52
75594;BME280;64176;49.156;7.810;2023-01-05T17:29:27;99948.13;;;9.89;80.32
75594;BME280;64176;49.156;7.810;2023-01-05T17:32:14;99928.13;;;9.77;81.03
75594;BME280;64176;49.156;7.810;2023-01-05T17:35:06;99929.75;;;9.73;81.27
75594;BME280;64176;49.156;7.810;2023-01-05T17:37:50;99919.34;;;9.69;82.26
75594;BME280;64176;49.156;7.810;2023-01-05T17:40:34;99930.63;;;9.74;82.37
75594;BME280;64176;49.156;7.810;2023-01-05T17:43:18;99913.19;;;9.62;82.75